createdAt,value
2023-03-17T00:01:21.949Z,64.55
2023-03-17T00:03:49.874Z,64.87
2023-03-17T00:06:27.775Z,65.00
2023-03-17T00:08:54.304Z,64.57
2023-03-17T00:11:21.217Z,65.20
2023-03-17T00:13:48.814Z,64.62
2023-03-17T00:16:28.746Z,65.13
2023-03-17T00:18:57.572Z,66.29
2023-03-17T00:21:32.285Z,65.84
2023-03-17T00:23:59.582Z,65.34
2023-03-17T00:26:26.731Z,65.72
2023-03-17T00:28:54.407Z,65.71
2023-03-17T00:31:24.323Z,64.45
2023-03-17T00:33:53.913Z,65.33
2023-03-17T00:36:23.920Z,66.01
2023-03-17T00:38:52.619Z,64.25
2023-03-17T00:41:19.261Z,63.81
2023-03-17T00:43:46.172Z,64.91
2023-03-17T00:46:38.022Z,65.12
2023-03-17T00:51:43.775Z,65.38
2023-03-17T00:54:11.399Z,65.56
2023-03-17T00:56:39.588Z,64.94
2023-03-17T00:59:19.472Z,64.61
2023-03-17T01:01:46.447Z,64.91
2023-03-17T01:04:13.472Z,65.83
2023-03-17T01:06:40.142Z,64.40
2023-03-17T01:09:08.163Z,65.62
2023-03-17T01:11:34.991Z,64.70
2023-03-17T01:14:01.504Z,64.91
2023-03-17T01:16:29.025Z,65.66
2023-03-17T01:18:55.627Z,64.93
2023-03-17T01:21:22.411Z,65.52
2023-03-17T01:23:49.176Z,66.08
2023-03-17T01:26:15.721Z,65.87
2023-03-17T01:28:42.562Z,65.71
2023-03-17T01:31:09.522Z,65.90
2023-03-17T01:33:36.438Z,65.82
2023-03-17T01:36:03.070Z,65.71
2023-03-17T01:38:29.649Z,65.84
2023-03-17T01:41:02.320Z,65.14
2023-03-17T01:43:30.746Z,65.92
2023-03-17T01:46:18.057Z,65.44
2023-03-17T01:49:22.977Z,65.84
2023-03-17T01:51:52.611Z,65.43
2023-03-17T01:54:37.266Z,64.98
2023-03-17T01:57:23.356Z,64.73
2023-03-17T01:59:57.533Z,65.51
2023-03-17T02:02:30.919Z,64.89
2023-03-17T02:04:58.388Z,65.53
2023-03-17T02:07:27.991Z,65.42
2023-03-17T02:09:56.966Z,65.48
2023-03-17T02:12:24.850Z,66.07
2023-03-17T02:14:52.302Z,66.64
2023-03-17T02:17:21.092Z,66.43
2023-03-17T02:19:48.323Z,67.80
2023-03-17T02:22:16.638Z,66.83
2023-03-17T02:24:55.704Z,67.14
2023-03-17T02:27:35.944Z,67.77
2023-03-17T02:30:04.564Z,67.65
2023-03-17T02:32:35.312Z,68.10
2023-03-17T02:35:02.369Z,68.14
2023-03-17T02:37:28.810Z,68.18
2023-03-17T02:39:55.694Z,67.49
2023-03-17T02:42:22.173Z,67.37
2023-03-17T02:44:48.612Z,67.62
2023-03-17T02:47:15.603Z,67.06
2023-03-17T02:49:43.396Z,67.43
2023-03-17T02:52:09.885Z,68.03
2023-03-17T02:54:39.119Z,69.05
2023-03-17T02:57:07.572Z,68.33
2023-03-17T02:59:34.504Z,68.85
2023-03-17T03:02:01.140Z,69.22
2023-03-17T03:04:27.743Z,69.37
2023-03-17T03:06:54.839Z,70.82
2023-03-17T03:09:21.393Z,70.23
2023-03-17T03:11:47.816Z,70.07
2023-03-17T03:14:14.421Z,70.23
2023-03-17T03:16:40.919Z,70.54
2023-03-17T03:19:07.963Z,70.29
2023-03-17T03:21:35.171Z,70.81
2023-03-17T03:24:01.639Z,71.05
2023-03-17T03:26:28.353Z,71.95
2023-03-17T03:28:57.233Z,72.33
2023-03-17T03:31:24.273Z,72.85
2023-03-17T03:33:50.796Z,72.77
2023-03-17T03:36:17.195Z,72.72
2023-03-17T03:38:43.689Z,72.27
2023-03-17T03:41:11.150Z,73.95
2023-03-17T03:43:37.579Z,74.03
2023-03-17T03:46:04.768Z,75.81
2023-03-17T03:48:31.308Z,75.29
2023-03-17T03:50:59.479Z,75.17
2023-03-17T03:53:26.578Z,74.96
2023-03-17T03:55:53.919Z,75.74
2023-03-17T03:58:21.240Z,77.79
2023-03-17T04:00:48.071Z,77.39
2023-03-17T04:03:14.965Z,76.86
2023-03-17T04:05:41.884Z,77.25
2023-03-17T04:08:09.021Z,77.41
2023-03-17T04:10:35.453Z,76.84
2023-03-17T04:13:01.933Z,76.50
2023-03-17T04:15:28.631Z,76.09
2023-03-17T04:17:55.335Z,75.64
2023-03-17T04:20:22.211Z,77.07
2023-03-17T04:22:48.756Z,76.61
2023-03-17T04:25:15.826Z,77.07
2023-03-17T04:27:42.941Z,76.63
2023-03-17T04:30:13.795Z,76.45
2023-03-17T04:32:41.672Z,76.49
2023-03-17T04:35:12.208Z,78.05
2023-03-17T04:37:38.888Z,79.03
2023-03-17T04:40:09.868Z,79.77
2023-03-17T04:42:39.304Z,80.57
2023-03-17T04:45:07.198Z,81.17
2023-03-17T04:47:33.672Z,81.05
2023-03-17T04:50:00.206Z,82.26
2023-03-17T04:52:26.736Z,82.35
2023-03-17T04:54:53.400Z,81.53
2023-03-17T04:57:20.584Z,80.30
2023-03-17T04:59:47.068Z,80.89
2023-03-17T05:02:16.343Z,80.88
2023-03-17T05:04:45.057Z,81.38
2023-03-17T05:07:12.634Z,82.19
2023-03-17T05:09:39.627Z,83.09
2023-03-17T05:12:07.366Z,82.92
2023-03-17T05:14:33.857Z,82.86
2023-03-17T05:17:00.390Z,82.18
2023-03-17T05:19:26.887Z,82.17
2023-03-17T05:21:53.331Z,81.65
2023-03-17T05:24:19.801Z,80.82
2023-03-17T05:26:46.409Z,80.78
2023-03-17T05:29:12.842Z,82.29
2023-03-17T05:31:39.276Z,83.61
2023-03-17T05:34:05.925Z,84.04
2023-03-17T05:36:33.525Z,83.45
2023-03-17T05:39:00.338Z,81.99
2023-03-17T05:41:26.853Z,83.33
2023-03-17T05:43:53.360Z,82.77
2023-03-17T05:46:20.780Z,81.76
2023-03-17T05:48:47.281Z,82.13
2023-03-17T05:51:13.876Z,82.29
2023-03-17T05:53:40.957Z,82.75
2023-03-17T05:56:07.910Z,82.75
2023-03-17T05:58:34.676Z,81.57
2023-03-17T06:01:01.099Z,80.57
2023-03-17T06:03:27.831Z,81.81
2023-03-17T06:05:54.435Z,81.28
2023-03-17T06:08:21.307Z,81.80
2023-03-17T06:10:48.021Z,81.11
2023-03-17T06:13:14.799Z,81.94
2023-03-17T06:15:42.480Z,81.42
2023-03-17T06:18:08.991Z,81.51
2023-03-17T06:20:35.433Z,76.36
2023-03-17T06:23:05.341Z,69.78
2023-03-17T06:25:34.416Z,63.51
2023-03-17T06:28:02.478Z,55.37
2023-03-17T06:30:30.501Z,54.52
2023-03-17T06:32:57.001Z,54.43
2023-03-17T06:35:24.661Z,52.32
2023-03-17T06:37:51.562Z,53.00
2023-03-17T06:40:18.212Z,51.98
2023-03-17T06:42:45.638Z,50.92
2023-03-17T06:45:13.123Z,46.70
2023-03-17T06:47:39.980Z,45.22
2023-03-17T06:50:12.280Z,43.06
2023-03-17T06:52:39.909Z,41.58
2023-03-17T06:55:07.207Z,38.75
2023-03-17T06:57:34.230Z,38.92
2023-03-17T07:00:01.034Z,38.12
2023-03-17T07:02:27.979Z,37.38
2023-03-17T07:04:54.547Z,38.87
2023-03-17T07:07:21.203Z,39.35
2023-03-17T07:09:47.919Z,38.79
2023-03-17T07:12:14.689Z,37.34
2023-03-17T07:14:41.698Z,37.77
2023-03-17T07:17:13.312Z,39.25
2023-03-17T07:19:40.603Z,40.79
2023-03-17T07:22:08.157Z,43.88
2023-03-17T07:24:34.684Z,45.22
2023-03-17T07:27:01.255Z,45.87
2023-03-17T07:29:29.246Z,46.30
2023-03-17T07:31:56.000Z,46.99
2023-03-17T07:34:23.125Z,45.25
2023-03-17T07:36:49.597Z,46.09
2023-03-17T07:39:16.566Z,47.12
2023-03-17T07:41:47.172Z,48.62
2023-03-17T07:44:13.805Z,49.30
2023-03-17T07:46:40.289Z,50.29
2023-03-17T07:49:07.581Z,49.75
2023-03-17T07:51:35.128Z,48.54
2023-03-17T07:54:05.708Z,48.68
2023-03-17T07:56:32.727Z,49.50
2023-03-17T07:58:59.830Z,51.02
2023-03-17T08:01:27.808Z,49.85
2023-03-17T08:03:55.567Z,50.08
2023-03-17T08:06:25.192Z,50.15
2023-03-17T08:08:52.922Z,50.96
2023-03-17T08:11:20.130Z,51.47
2023-03-17T08:13:47.867Z,49.13
2023-03-17T08:16:14.675Z,50.62
2023-03-17T08:18:41.541Z,47.29
2023-03-17T08:21:08.233Z,48.09
2023-03-17T08:23:34.974Z,45.16
2023-03-17T08:26:03.128Z,42.78
2023-03-17T08:28:30.415Z,42.39
2023-03-17T08:31:17.258Z,42.57
2023-03-17T08:33:47.683Z,41.00
2023-03-17T08:36:14.904Z,41.53
2023-03-17T08:38:42.440Z,39.86
2023-03-17T08:41:12.284Z,40.80
2023-03-17T08:43:39.723Z,40.19
2023-03-17T08:46:09.706Z,41.32
2023-03-17T08:48:37.242Z,40.79
2023-03-17T08:51:05.354Z,39.86
2023-03-17T08:53:34.847Z,37.07
2023-03-17T08:56:02.317Z,38.21
2023-03-17T08:58:29.320Z,39.83
2023-03-17T09:00:59.616Z,39.00
2023-03-17T09:03:27.261Z,37.54
2023-03-17T09:05:54.658Z,40.59
2023-03-17T09:08:22.629Z,42.58
2023-03-17T09:10:49.817Z,41.13
2023-03-17T09:13:16.307Z,40.84
2023-03-17T09:15:42.989Z,44.98
2023-03-17T09:18:10.399Z,44.15
2023-03-17T09:20:37.251Z,45.42
2023-03-17T09:23:08.195Z,44.45
2023-03-17T09:25:39.366Z,42.95
2023-03-17T09:28:07.242Z,44.22
2023-03-17T09:30:33.824Z,48.09
2023-03-17T09:33:00.729Z,47.62
2023-03-17T09:35:28.591Z,46.36
2023-03-17T09:37:55.636Z,47.41
2023-03-17T09:40:33.080Z,47.49
2023-03-17T09:42:59.661Z,48.42
2023-03-17T09:45:38.916Z,47.51
2023-03-17T09:48:13.352Z,47.30
2023-03-17T09:50:48.683Z,48.85
2023-03-17T09:53:22.630Z,47.81
2023-03-17T09:55:55.439Z,49.09
2023-03-17T09:58:32.097Z,49.06
2023-03-17T10:01:00.608Z,47.94
2023-03-17T10:03:27.432Z,47.60
2023-03-17T10:05:59.557Z,46.26
2023-03-17T10:08:33.802Z,46.01
2023-03-17T10:11:18.765Z,44.64
2023-03-17T10:13:53.118Z,45.22
2023-03-17T10:16:23.209Z,45.03
2023-03-17T10:18:53.023Z,41.82
2023-03-17T10:21:25.336Z,41.52
2023-03-17T10:23:54.397Z,41.62
2023-03-17T10:26:33.581Z,40.30
2023-03-17T10:29:04.174Z,40.44
2023-03-17T10:31:33.679Z,40.58
2023-03-17T10:34:16.354Z,41.42
2023-03-17T10:36:47.262Z,41.46
2023-03-17T10:39:18.811Z,42.11
2023-03-17T10:41:58.986Z,42.23
2023-03-17T10:44:40.701Z,43.52
2023-03-17T10:47:22.741Z,42.48
2023-03-17T10:49:49.416Z,45.14
2023-03-17T10:52:23.002Z,44.32
2023-03-17T10:54:53.117Z,43.19
2023-03-17T10:57:19.740Z,42.74
2023-03-17T10:59:54.394Z,43.61
2023-03-17T11:02:30.502Z,42.97
2023-03-17T11:05:04.319Z,42.47
2023-03-17T11:07:39.974Z,44.19
2023-03-17T11:10:23.803Z,44.77
2023-03-17T11:12:59.082Z,42.77
2023-03-17T11:15:32.475Z,43.09
2023-03-17T11:18:01.984Z,41.54
2023-03-17T11:20:38.456Z,40.73
2023-03-17T11:23:17.790Z,40.45
2023-03-17T11:25:49.549Z,37.61
2023-03-17T11:28:24.920Z,41.10
2023-03-17T11:31:23.246Z,42.01
2023-03-17T11:34:06.963Z,40.62
2023-03-17T11:36:36.302Z,40.30
2023-03-17T11:39:43.087Z,40.02
2023-03-17T11:42:18.797Z,40.81
2023-03-17T11:45:00.472Z,42.50
2023-03-17T11:47:45.254Z,43.27
2023-03-17T11:50:34.227Z,42.55
2023-03-17T11:53:19.431Z,42.38
2023-03-17T11:55:51.529Z,44.21
2023-03-17T11:58:28.581Z,43.91
2023-03-17T12:01:02.961Z,43.67
2023-03-17T12:03:33.929Z,43.58
2023-03-17T12:06:07.441Z,44.70
2023-03-17T12:08:39.922Z,44.46
2023-03-17T12:11:12.323Z,44.42
2023-03-17T12:13:48.204Z,43.68
2023-03-17T12:16:22.655Z,42.74
2023-03-17T12:19:03.440Z,43.24
2023-03-17T12:21:41.977Z,42.64
2023-03-17T12:24:31.371Z,43.24
2023-03-17T12:27:09.171Z,43.41
2023-03-17T12:29:52.489Z,45.23
2023-03-17T12:32:33.650Z,44.67
2023-03-17T12:35:19.081Z,44.67
2023-03-17T12:37:46.567Z,43.79
2023-03-17T12:40:18.726Z,44.25
2023-03-17T12:43:35.220Z,42.64
2023-03-17T12:46:28.807Z,44.05
2023-03-17T12:49:11.040Z,42.67
2023-03-17T12:52:06.664Z,42.84
2023-03-17T12:54:39.435Z,42.91
2023-03-17T12:57:20.609Z,42.30
2023-03-17T12:59:50.985Z,41.80
2023-03-17T13:02:23.081Z,41.95
2023-03-17T13:04:57.813Z,44.20
2023-03-17T13:07:27.055Z,44.96
2023-03-17T13:09:53.461Z,42.99
2023-03-17T13:12:42.065Z,42.45
2023-03-17T13:15:36.199Z,43.17
2023-03-17T13:18:15.418Z,42.62
2023-03-17T13:20:57.814Z,42.09
2023-03-17T13:24:18.786Z,43.38
2023-03-17T13:27:10.747Z,44.45
2023-03-17T13:29:37.133Z,43.09
2023-03-17T13:32:39.837Z,42.67
2023-03-17T13:35:43.572Z,43.43
2023-03-17T13:38:43.432Z,42.68
2023-03-17T13:41:53.172Z,44.03
2023-03-17T13:44:49.465Z,43.61
2023-03-17T13:47:36.154Z,42.15
2023-03-17T13:50:27.704Z,42.26
2023-03-17T13:53:19.088Z,43.26
2023-03-17T13:56:16.587Z,43.98
2023-03-17T13:59:01.688Z,43.88
2023-03-17T14:01:43.061Z,42.54
2023-03-17T14:04:19.220Z,42.40
2023-03-17T14:06:50.139Z,41.92
2023-03-17T14:09:29.647Z,41.60
2023-03-17T14:11:59.985Z,41.97
2023-03-17T14:14:33.581Z,41.65
2023-03-17T14:17:12.141Z,42.81
2023-03-17T14:19:41.688Z,41.04
2023-03-17T14:22:23.638Z,40.57
2023-03-17T14:24:55.447Z,40.65
2023-03-17T14:27:26.412Z,40.14
2023-03-17T14:29:53.054Z,38.13
2023-03-17T14:32:24.850Z,39.22
2023-03-17T14:34:57.567Z,39.78
2023-03-17T14:37:24.341Z,38.28
2023-03-17T14:39:53.974Z,38.08
2023-03-17T14:42:26.351Z,37.78
2023-03-17T14:45:01.802Z,38.56
2023-03-17T14:47:32.289Z,39.63
2023-03-17T14:50:02.709Z,39.61
2023-03-17T14:52:33.451Z,41.94
2023-03-17T14:55:00.934Z,40.46
2023-03-17T14:57:31.306Z,41.03
2023-03-17T15:00:15.304Z,39.62
2023-03-17T15:02:44.332Z,40.58
2023-03-17T15:05:39.720Z,41.26
2023-03-17T15:08:46.321Z,42.50
2023-03-17T15:11:21.788Z,42.40
2023-03-17T15:13:51.204Z,41.57
2023-03-17T15:16:25.597Z,41.32
2023-03-17T15:19:06.824Z,41.31
2023-03-17T15:21:42.937Z,41.09
2023-03-17T15:24:25.479Z,42.13
2023-03-17T15:27:00.795Z,42.42
2023-03-17T15:29:28.574Z,41.93
2023-03-17T15:32:02.937Z,41.79
2023-03-17T15:34:29.490Z,41.60
2023-03-17T15:36:57.072Z,40.92
2023-03-17T15:39:24.488Z,41.21
2023-03-17T15:41:52.072Z,41.20
2023-03-17T15:44:18.521Z,40.85
2023-03-17T15:46:45.259Z,40.52
2023-03-17T15:49:12.460Z,40.81
2023-03-17T15:51:38.997Z,40.60
2023-03-17T15:54:05.649Z,41.11
2023-03-17T15:56:32.090Z,41.52
2023-03-17T15:58:58.574Z,41.72
2023-03-17T16:01:27.879Z,42.72
2023-03-17T16:03:54.676Z,43.05
2023-03-17T16:06:22.493Z,43.91
2023-03-17T16:08:49.740Z,43.16
2023-03-17T16:11:28.037Z,42.98
2023-03-17T16:13:56.001Z,44.42
2023-03-17T16:16:43.611Z,45.18
2023-03-17T16:19:22.898Z,44.91
2023-03-17T16:21:49.439Z,44.25
2023-03-17T16:24:27.041Z,44.12
2023-03-17T16:26:53.880Z,44.19
2023-03-17T16:29:21.608Z,44.68
2023-03-17T16:31:50.482Z,45.19
2023-03-17T16:34:26.939Z,44.93
2023-03-17T16:36:54.555Z,44.84
2023-03-17T16:39:23.291Z,45.33
2023-03-17T16:41:50.592Z,45.97
2023-03-17T16:44:19.499Z,46.09
2023-03-17T16:46:46.116Z,46.78
2023-03-17T16:49:15.468Z,46.89
2023-03-17T16:51:42.820Z,46.26
2023-03-17T16:54:10.605Z,46.67
2023-03-17T16:56:39.833Z,46.80
2023-03-17T16:59:13.122Z,46.77
2023-03-17T17:01:39.661Z,47.92
2023-03-17T17:04:09.711Z,47.57
2023-03-17T17:06:36.137Z,48.20
2023-03-17T17:09:02.920Z,49.97
2023-03-17T17:11:29.434Z,48.50
2023-03-17T17:13:55.913Z,47.77
2023-03-17T17:16:27.467Z,48.97
2023-03-17T17:18:54.422Z,50.78
2023-03-17T17:21:21.332Z,50.32
2023-03-17T17:23:48.497Z,51.20
2023-03-17T17:26:14.902Z,52.43
2023-03-17T17:28:41.374Z,49.28
2023-03-17T17:31:08.903Z,51.16
2023-03-17T17:33:36.664Z,52.03
2023-03-17T17:36:12.444Z,50.74
2023-03-17T17:38:38.927Z,48.97
2023-03-17T17:41:08.932Z,48.78
2023-03-17T17:43:35.756Z,48.45
2023-03-17T17:46:02.481Z,48.36
2023-03-17T17:48:29.189Z,48.80
2023-03-17T17:50:56.587Z,50.60
2023-03-17T17:53:23.195Z,50.67
2023-03-17T17:55:50.419Z,52.54
2023-03-17T17:58:20.587Z,55.35
2023-03-17T18:00:47.181Z,57.12
2023-03-17T18:03:13.695Z,56.70
2023-03-17T18:05:40.203Z,57.20
2023-03-17T18:08:06.609Z,56.51
2023-03-17T18:10:33.963Z,56.79
2023-03-17T18:13:01.953Z,56.53
2023-03-17T18:15:28.546Z,57.71
2023-03-17T18:17:56.008Z,57.99
2023-03-17T18:20:23.725Z,58.21
2023-03-17T18:22:51.017Z,58.70
2023-03-17T18:25:18.006Z,59.27
2023-03-17T18:27:44.913Z,53.64
2023-03-17T18:30:14.433Z,53.98
2023-03-17T18:32:43.017Z,55.52
2023-03-17T18:35:15.069Z,57.02
2023-03-17T18:37:41.931Z,59.28
2023-03-17T18:40:15.191Z,60.07
2023-03-17T18:42:43.796Z,61.20
2023-03-17T18:45:11.589Z,61.63
2023-03-17T18:47:38.971Z,62.29
2023-03-17T18:50:08.067Z,62.49
2023-03-17T18:52:37.027Z,62.77
2023-03-17T18:55:04.357Z,63.10
2023-03-17T18:57:31.212Z,62.57
2023-03-17T18:59:57.845Z,62.50
2023-03-17T19:02:24.465Z,61.99
2023-03-17T19:04:51.406Z,62.79
2023-03-17T19:07:18.314Z,64.23
2023-03-17T19:09:46.122Z,63.89
2023-03-17T19:12:13.820Z,64.30
2023-03-17T19:14:40.961Z,65.35
2023-03-17T19:17:08.756Z,65.87
2023-03-17T19:19:35.787Z,66.20
2023-03-17T19:22:03.965Z,66.02
2023-03-17T19:24:32.010Z,65.67
2023-03-17T19:27:01.541Z,65.97
2023-03-17T19:29:30.664Z,66.33
2023-03-17T19:32:00.490Z,67.06
2023-03-17T19:34:30.181Z,66.96
2023-03-17T19:36:59.143Z,67.66
2023-03-17T19:39:31.190Z,67.53
2023-03-17T19:42:01.876Z,67.34
2023-03-17T19:44:28.344Z,66.20
2023-03-17T19:46:55.120Z,67.06
2023-03-17T19:49:22.448Z,68.12
2023-03-17T19:51:49.637Z,69.17
2023-03-17T19:54:16.714Z,69.50
2023-03-17T19:56:43.511Z,69.53
2023-03-17T19:59:10.179Z,68.47
2023-03-17T20:01:38.089Z,69.66
2023-03-17T20:04:08.716Z,68.48
2023-03-17T20:06:35.631Z,69.21
2023-03-17T20:09:04.185Z,69.75
2023-03-17T20:11:34.470Z,69.93
2023-03-17T20:14:02.325Z,70.13
2023-03-17T20:16:31.999Z,70.63
2023-03-17T20:18:59.399Z,70.59
2023-03-17T20:21:26.440Z,72.33
2023-03-17T20:23:52.947Z,73.36
2023-03-17T20:26:19.986Z,73.10
2023-03-17T20:29:12.256Z,72.75
2023-03-17T20:31:41.030Z,71.69
2023-03-17T20:34:11.844Z,71.52
2023-03-17T20:36:44.292Z,70.33
2023-03-17T20:39:14.882Z,71.57
2023-03-17T20:41:41.698Z,71.96
2023-03-17T20:44:09.052Z,72.26
2023-03-17T20:46:37.700Z,71.95
2023-03-17T20:49:09.823Z,71.99
2023-03-17T20:51:36.909Z,71.99
2023-03-17T20:54:04.105Z,72.20
2023-03-17T20:56:34.110Z,72.56
2023-03-17T20:59:04.991Z,72.94
2023-03-17T21:01:42.642Z,73.02
2023-03-17T21:04:12.337Z,72.68
2023-03-17T21:06:42.877Z,72.51
2023-03-17T21:09:10.169Z,74.68
2023-03-17T21:11:39.976Z,74.55
2023-03-17T21:14:09.424Z,74.92
2023-03-17T21:16:37.788Z,74.43
2023-03-17T21:19:07.960Z,75.02
2023-03-17T21:21:35.720Z,74.75
2023-03-17T21:24:02.506Z,74.22
2023-03-17T21:26:29.080Z,74.70
2023-03-17T21:28:56.845Z,74.64
2023-03-17T21:31:23.407Z,74.71
2023-03-17T21:33:50.656Z,75.11
2023-03-17T21:36:17.854Z,74.22
2023-03-17T21:38:44.388Z,75.03
2023-03-17T21:41:29.034Z,75.32
2023-03-17T21:43:55.760Z,75.88
2023-03-17T21:46:22.214Z,75.57
2023-03-17T21:48:49.587Z,74.60
2023-03-17T21:51:16.142Z,74.38
2023-03-17T21:53:42.618Z,72.97
2023-03-17T21:56:10.731Z,74.12
2023-03-17T21:58:38.511Z,73.37
2023-03-17T22:01:06.186Z,73.75
2023-03-17T22:03:32.835Z,73.32
2023-03-17T22:05:59.461Z,73.09
2023-03-17T22:08:26.702Z,73.54
2023-03-17T22:10:53.127Z,74.06
2023-03-17T22:13:19.510Z,71.10
2023-03-17T22:15:45.951Z,71.17
2023-03-17T22:18:12.483Z,69.51
2023-03-17T22:20:39.094Z,70.55
2023-03-17T22:23:05.660Z,69.74
2023-03-17T22:25:32.193Z,70.50
2023-03-17T22:27:58.636Z,70.06
2023-03-17T22:30:25.087Z,70.49
2023-03-17T22:32:52.015Z,72.05
2023-03-17T22:35:20.685Z,73.84
2023-03-17T22:37:47.392Z,73.42
2023-03-17T22:40:14.840Z,73.37
2023-03-17T22:42:41.443Z,72.39
2023-03-17T22:45:08.550Z,74.12
2023-03-17T22:47:35.031Z,73.17
2023-03-17T22:50:01.569Z,73.66
2023-03-17T22:52:28.237Z,74.94
2023-03-17T22:54:54.903Z,74.15
2023-03-17T22:57:21.374Z,74.32
2023-03-17T22:59:47.861Z,74.08
2023-03-17T23:02:16.225Z,73.15
2023-03-17T23:04:43.958Z,73.29
2023-03-17T23:07:11.137Z,73.29
2023-03-17T23:09:38.948Z,73.49
2023-03-17T23:12:06.200Z,73.67
2023-03-17T23:14:32.773Z,74.30
2023-03-17T23:16:59.509Z,73.15
2023-03-17T23:19:26.172Z,73.55
2023-03-17T23:21:52.589Z,72.99
2023-03-17T23:24:19.086Z,72.89
2023-03-17T23:26:45.558Z,74.49
2023-03-17T23:29:12.550Z,74.47
2023-03-17T23:31:39.624Z,74.26
2023-03-17T23:34:07.623Z,74.50
2023-03-17T23:36:35.200Z,74.09
2023-03-17T23:39:02.298Z,73.52
2023-03-17T23:41:28.751Z,72.80
2023-03-17T23:43:55.319Z,73.31
2023-03-17T23:46:21.768Z,73.15
2023-03-17T23:48:49.242Z,72.60
2023-03-17T23:51:15.641Z,71.69
2023-03-17T23:53:42.190Z,71.93
2023-03-17T23:56:11.213Z,72.57
2023-03-17T23:58:37.975Z,72.36
